Time;durP1;ratioP1;P1;durP2;ratioP2;P2;SDS_P1;SDS_P2;PMS_P1;PMS_P2;Temp;Humidity;BMP_temperature;BMP_pressure;BME280_temperature;BME280_humidity;BME280_pressure;Samples;Min_cycle;Max_cycle;Signal;HPM_P1;HPM_P2
2021/06/06 00:00:35;;;;;;;6.01;2.33;;;;;;;16.25;66.40;100420.06;456603;115;923821;-71
2021/06/06 00:01:42;;;;;;;4.59;1.53;;;;;;;16.24;66.35;100428.56;459666;115;922435;-72
2021/06/06 00:02:47;;;;;;;3.34;2.13;;;;;;;16.21;66.31;100429.06;465601;113;923115;-70
2021/06/06 00:03:54;;;;;;;3.35;1.46;;;;;;;16.18;66.41;100427.67;458795;114;922554;-70
2021/06/06 00:04:58;;;;;;;3.52;1.70;;;;;;;16.16;66.50;100434.50;465661;113;930192;-71
2021/06/06 00:06:04;;;;;;;6.24;2.34;;;;;;;16.15;66.49;100436.41;466288;113;925793;-70
2021/06/06 00:07:08;;;;;;;3.19;1.83;;;;;;;16.13;66.52;100433.11;455151;116;924170;-70
2021/06/06 00:08:12;;;;;;;7.05;1.75;;;;;;;16.14;66.55;100431.19;462888;113;924100;-71
2021/06/06 00:09:18;;;;;;;5.76;1.84;;;;;;;16.13;66.55;100433.11;457062;115;931865;-69
2021/06/06 00:10:24;;;;;;;4.18;2.03;;;;;;;16.14;66.56;100426.52;458558;113;933916;-70
2021/06/06 00:11:33;;;;;;;2.95;1.56;;;;;;;16.15;66.58;100421.86;461635;114;924120;-71
2021/06/06 00:12:37;;;;;;;6.29;2.62;;;;;;;16.15;66.52;100425.41;455332;115;922442;-69
2021/06/06 00:13:44;;;;;;;2.49;1.95;;;;;;;16.15;66.44;100427.36;462969;113;922583;-69
2021/06/06 00:14:47;;;;;;;5.63;2.01;;;;;;;16.14;66.44;100426.52;465559;112;922837;-70
2021/06/06 00:15:55;;;;;;;3.59;2.23;;;;;;;16.14;66.45;100425.69;465641;113;924055;-71
2021/06/06 00:17:04;;;;;;;4.15;1.79;;;;;;;16.14;66.43;100422.94;457315;115;922940;-70
2021/06/06 00:18:08;;;;;;;2.96;1.46;;;;;;;16.15;66.47;100433.66;450469;115;923557;-70
2021/06/06 00:19:13;;;;;;;3.48;2.16;;;;;;;16.16;66.51;100429.00;458839;114;925436;-71
2021/06/06 00:20:17;;;;;;;7.01;2.04;;;;;;;16.17;66.59;100417.75;458529;114;923238;-68
2021/06/06 00:21:24;;;;;;;3.40;1.94;;;;;;;16.18;66.56;100416.67;463801;113;923941;-70
2021/06/06 00:22:27;;;;;;;2.83;1.99;;;;;;;16.20;66.51;100427.42;465830;113;922529;-68
2021/06/06 00:23:32;;;;;;;5.22;1.91;;;;;;;16.20;66.50;100424.67;465278;113;924014;-67
2021/06/06 00:24:37;;;;;;;3.72;1.89;;;;;;;16.22;66.45;100427.98;466124;113;922824;-69
2021/06/06 00:25:41;;;;;;;2.64;1.77;;;;;;;16.23;66.39;100429.65;465429;113;924062;-70
2021/06/06 00:26:46;;;;;;;3.34;1.77;;;;;;;16.22;66.30;100431.56;465576;113;922496;-70
2021/06/06 00:27:50;;;;;;;5.87;1.50;;;;;;;16.21;66.32;100427.14;464798;113;924451;-71
2021/06/06 00:28:55;;;;;;;3.88;1.99;;;;;;;16.21;66.42;100435.40;463582;114;922786;-70
2021/06/06 00:29:58;;;;;;;5.06;1.46;;;;;;;16.21;66.51;100424.39;463651;114;922553;-69
2021/06/06 00:31:05;;;;;;;3.95;2.05;;;;;;;16.21;66.53;100435.40;463696;114;924220;-71
2021/06/06 00:32:09;;;;;;;7.33;2.04;;;;;;;16.22;66.59;100430.73;463342;114;922839;-70
2021/06/06 00:33:13;;;;;;;3.66;1.84;;;;;;;16.23;66.64;100424.14;463637;113;922676;-71
2021/06/06 00:34:18;;;;;;;4.33;1.98;;;;;;;16.24;66.67;100429.41;455309;115;922602;-70
2021/06/06 00:35:23;;;;;;;4.21;2.09;;;;;;;16.25;66.68;100432.98;445685;116;931792;-71
2021/06/06 00:36:28;;;;;;;3.12;2.29;;;;;;;16.24;66.67;100426.65;458213;115;931779;-71
2021/06/06 00:37:32;;;;;;;4.09;1.88;;;;;;;16.25;66.60;100424.73;455689;115;924217;-68
2021/06/06 00:38:36;;;;;;;6.66;1.99;;;;;;;16.24;66.53;100428.56;445182;116;922632;-70
2021/06/06 00:39:41;;;;;;;5.13;1.79;;;;;;;16.23;66.46;100427.73;452840;116;924098;-71
2021/06/06 00:40:46;;;;;;;8.13;1.91;;;;;;;16.24;66.41;100428.56;456331;114;922619;-70
2021/06/06 00:41:51;;;;;;;5.55;1.86;;;;;;;16.24;66.55;100423.90;453837;115;922474;-71
2021/06/06 00:42:56;;;;;;;3.11;1.91;;;;;;;16.23;66.53;100430.48;463659;113;924066;-71
2021/06/06 00:44:01;;;;;;;4.79;1.94;;;;;;;16.22;66.53;100433.48;452677;116;922322;-70
2021/06/06 00:45:08;;;;;;;5.08;1.82;;;;;;;16.21;66.56;100435.40;452785;116;922570;-70
2021/06/06 00:46:14;;;;;;;5.22;2.24;;;;;;;16.20;66.60;100436.52;441548;118;930452;-70
2021/06/06 00:47:18;;;;;;;5.03;1.71;;;;;;;16.19;66.68;100434.84;455804;114;922633;-71
2021/06/06 00:48:23;;;;;;;3.39;1.76;;;;;;;16.19;66.65;100429.34;455493;115;923986;-71
2021/06/06 00:49:29;;;;;;;3.52;1.83;;;;;;;16.19;66.67;100432.09;457616;114;930342;-75
2021/06/06 00:50:38;;;;;;;3.84;1.89;;;;;;;16.19;66.68;100431.25;447101;118;922843;-77
2021/06/06 00:51:59;;;;;;;2.37;1.91;;;;;;;16.20;66.71;100435.67;446480;116;922692;-74
2021/06/06 00:53:08;;;;;;;2.75;1.72;;;;;;;16.19;66.69;100429.34;453203;115;922546;-77
2021/06/06 00:54:22;;;;;;;4.45;1.93;;;;;;;16.19;66.71;100440.34;456965;114;922442;-74
2021/06/06 00:55:27;;;;;;;2.91;1.70;;;;;;;16.19;66.73;100432.09;453719;116;923174;-76
2021/06/06 00:56:33;;;;;;;5.31;2.02;;;;;;;16.19;66.75;100423.84;454141;114;923239;-76
2021/06/06 00:57:39;;;;;;;3.91;2.11;;;;;;;16.20;66.67;100428.26;463641;114;922405;-76
2021/06/06 00:58:45;;;;;;;4.11;1.76;;;;;;;16.19;66.68;100420.25;456884;113;923095;-77
2021/06/06 00:59:52;;;;;;;4.62;2.18;;;;;;;16.19;66.77;100429.34;458652;113;924147;-78
2021/06/06 01:00:58;;;;;;;5.22;1.78;;;;;;;16.20;66.88;100427.42;453801;115;923814;-77
2021/06/06 01:02:02;;;;;;;5.68;2.03;;;;;;;16.19;66.78;100425.75;463622;114;923031;-74
2021/06/06 01:03:06;;;;;;;3.46;1.53;;;;;;;16.18;66.81;100418.58;454074;115;923582;-76
2021/06/06 01:04:11;;;;;;;4.93;2.11;;;;;;;16.17;66.89;100426.00;458130;114;931481;-75
2021/06/06 01:05:36;;;;;;;7.84;1.97;;;;;;;16.17;66.90;100430.66;453364;115;926097;-76
2021/06/06 01:06:45;;;;;;;3.78;1.96;;;;;;;16.18;66.95;100424.92;459180;114;934937;-74
2021/06/06 01:07:49;;;;;;;11.36;1.83;;;;;;;16.17;67.03;100422.41;462628;114;923853;-76
2021/06/06 01:08:54;;;;;;;3.73;2.23;;;;;;;16.16;67.03;100424.33;452823;115;923695;-75
2021/06/06 01:09:58;;;;;;;4.59;1.82;;;;;;;16.16;67.11;100421.58;460080;114;926080;-76
2021/06/06 01:11:09;;;;;;;4.42;1.82;;;;;;;16.17;67.20;100420.50;454282;116;932016;-76
2021/06/06 01:12:22;;;;;;;2.66;1.88;;;;;;;16.16;67.08;100418.83;462306;114;923533;-74
2021/06/06 01:13:43;;;;;;;6.58;2.22;;;;;;;16.27;67.22;100417.88;480729;108;948274;-74
2021/06/06 01:15:16;;;;;;;5.48;2.15;;;;;;;16.16;67.23;100418.83;471548;111;923696;-74
2021/06/06 01:16:20;;;;;;;4.27;1.87;;;;;;;16.15;67.25;100422.66;462922;113;924183;-77
2021/06/06 01:17:31;;;;;;;2.42;1.73;;;;;;;16.14;67.37;100417.44;455539;113;924082;-76
2021/06/06 01:18:40;;;;;;;9.58;1.89;;;;;;;16.12;67.45;100417.69;463956;113;924212;-77
2021/06/06 01:20:12;;;;;;;5.47;1.84;;;;;;;16.11;67.51;100421.52;464175;113;922573;-76
2021/06/06 01:21:46;;;;;;;3.60;1.77;;;;;;;16.10;67.57;100413.52;456408;114;922564;-76
2021/06/06 01:22:56;;;;;;;2.74;1.96;;;;;;;16.08;67.63;100418.45;447913;116;924120;-76
2021/06/06 01:24:11;;;;;;;6.24;1.97;;;;;;;16.08;67.67;100421.20;456633;112;924199;-77
2021/06/06 01:25:21;;;;;;;3.63;1.61;;;;;;;16.08;67.71;100412.95;464343;113;923894;-78
2021/06/06 01:26:27;;;;;;;;;;;;;;;16.08;67.73;100416.54;462021;113;923155;-76
2021/06/06 01:27:32;;;;;;;4.53;1.73;;;;;;;16.08;67.72;100416.54;462767;112;922489;-77
2021/06/06 01:28:49;;;;;;;2.99;1.83;;;;;;;16.07;67.76;100416.78;463178;113;923536;-77
2021/06/06 01:30:24;;;;;;;5.29;1.83;;;;;;;16.17;67.94;100406.74;474142;109;935625;-76
2021/06/06 01:31:31;;;;;;;3.19;1.77;;;;;;;16.06;67.98;100413.20;466850;111;922620;-77
2021/06/06 01:32:46;;;;;;;4.27;1.74;;;;;;;16.07;68.00;100414.03;464695;112;922448;-75
2021/06/06 01:33:54;;;;;;;3.26;1.84;;;;;;;16.07;67.98;100420.37;462737;112;923844;-78
2021/06/06 01:35:12;;;;;;;3.56;1.79;;;;;;;16.06;67.99;100413.20;453325;115;922591;-76
2021/06/06 01:36:24;;;;;;;6.62;1.79;;;;;;;16.06;68.01;100417.86;456651;112;922575;-76
2021/06/06 01:37:30;;;;;;;7.78;2.02;;;;;;;16.04;68.09;100411.81;464120;112;924700;-78
2021/06/06 01:38:37;;;;;;;2.99;1.71;;;;;;;16.02;68.11;100412.05;464128;112;922677;-76
2021/06/06 01:39:51;;;;;;;3.73;2.13;;;;;;;16.02;68.28;100413.97;463285;112;922911;-75
2021/06/06 01:40:59;;;;;;;5.98;2.10;;;;;;;16.02;68.25;100412.05;455629;115;922634;-77
2021/06/06 01:42:26;;;;;;;2.88;1.82;;;;;;;16.01;68.10;100412.30;446651;116;923249;-76
2021/06/06 01:43:34;;;;;;;6.05;2.07;;;;;;;16.02;68.04;100419.47;458314;112;924022;-75
2021/06/06 01:44:44;;;;;;;4.09;1.64;;;;;;;16.00;68.13;100416.97;464555;112;924438;-77
2021/06/06 01:45:52;;;;;;;9.47;2.16;;;;;;;16.00;68.16;100410.63;465149;112;932206;-79
2021/06/06 01:47:09;;;;;;;4.24;1.92;;;;;;;16.00;68.21;100414.22;465047;112;924170;-77
2021/06/06 01:48:14;;;;;;;2.81;1.76;;;;;;;16.00;68.28;100405.12;464862;112;924099;-75
2021/06/06 01:49:22;;;;;;;3.02;1.76;;;;;;;16.00;68.40;100408.72;465855;112;922808;-77
2021/06/06 01:50:33;;;;;;;7.48;2.26;;;;;;;16.00;68.48;100408.72;464940;112;924065;-75
2021/06/06 01:51:41;;;;;;;4.50;2.10;;;;;;;16.01;68.50;100404.88;464513;112;923934;-75
2021/06/06 01:52:47;;;;;;;5.68;2.33;;;;;;;16.02;68.55;100398.30;462653;112;925403;-74
2021/06/06 01:53:52;;;;;;;3.90;1.40;;;;;;;16.04;68.53;100398.06;464059;111;922456;-77
2021/06/06 01:54:59;;;;;;;3.33;1.84;;;;;;;16.04;68.51;100396.14;463547;112;924144;-76
2021/06/06 01:56:06;;;;;;;4.99;2.16;;;;;;;16.05;68.50;100394.19;463040;112;924474;-75
2021/06/06 01:57:21;;;;;;;3.02;1.63;;;;;;;16.07;68.46;100401.12;461667;112;922713;-77
2021/06/06 01:58:28;;;;;;;4.95;2.17;;;;;;;16.08;68.23;100399.20;463566;112;923980;-75
2021/06/06 01:59:36;;;;;;;4.78;2.02;;;;;;;16.07;68.07;100395.61;463854;112;922496;-77
2021/06/06 02:02:50;;;;;;;3.95;1.85;;;;;;;16.05;68.14;100407.94;436276;119;924079;-69
2021/06/06 02:03:57;;;;;;;3.37;1.98;;;;;;;15.97;68.32;100403.73;443910;115;925502;-70
2021/06/06 02:05:09;;;;;;;4.60;1.92;;;;;;;15.94;68.41;100406.98;444091;116;924036;-70
2021/06/06 02:06:16;;;;;;;4.67;1.88;;;;;;;15.92;68.48;100411.92;443703;115;922734;-68
2021/06/06 02:07:27;;;;;;;3.78;1.89;;;;;;;15.89;68.56;100422.58;450661;114;924508;-69
2021/06/06 02:08:35;;;;;;;6.49;1.62;;;;;;;15.87;68.66;100417.35;452586;114;924073;-70
2021/06/06 02:09:49;;;;;;;4.62;1.96;;;;;;;15.84;68.78;100420.59;451863;115;922552;-69
2021/06/06 02:11:11;;;;;;;5.47;2.26;;;;;;;15.82;68.81;100406.28;450966;114;922515;-68
2021/06/06 02:12:17;;;;;;;6.42;2.16;;;;;;;15.82;68.86;100411.78;452497;114;924459;-69
2021/06/06 02:13:42;;;;;;;2.85;1.90;;;;;;;15.81;69.00;100410.11;452177;114;923004;-69
2021/06/06 02:14:46;;;;;;;7.23;2.26;;;;;;;15.81;69.01;100410.11;453179;114;923017;-69
2021/06/06 02:15:58;;;;;;;4.30;2.31;;;;;;;15.80;69.05;100413.94;449965;113;922585;-69
2021/06/06 02:17:07;;;;;;;6.23;1.86;;;;;;;15.80;69.08;100413.94;452339;113;922610;-70
2021/06/06 02:18:13;;;;;;;3.18;1.82;;;;;;;15.81;69.17;100415.61;453031;114;924092;-69
2021/06/06 02:19:18;;;;;;;2.27;1.62;;;;;;;15.82;69.08;100411.78;452473;114;922481;-69
2021/06/06 02:20:28;;;;;;;3.29;1.73;;;;;;;15.84;68.99;100410.42;451659;113;922998;-69
2021/06/06 02:21:32;;;;;;;4.62;2.09;;;;;;;15.85;68.97;100416.77;451568;114;922623;-69
2021/06/06 02:22:36;;;;;;;4.05;2.15;;;;;;;15.87;69.02;100414.60;452203;114;923058;-69
2021/06/06 02:23:42;;;;;;;5.25;1.84;;;;;;;15.89;69.07;100417.91;452124;113;922892;-68
2021/06/06 02:24:47;;;;;;;5.33;1.90;;;;;;;15.92;69.15;100414.67;450060;116;922416;-69
2021/06/06 02:25:54;;;;;;;3.32;1.84;;;;;;;15.92;69.05;100414.67;450967;113;922662;-70
2021/06/06 02:27:17;;;;;;;4.22;2.14;;;;;;;15.93;69.00;100418.26;451966;115;922843;-69
2021/06/06 02:28:34;;;;;;;6.03;2.39;;;;;;;15.92;69.04;100409.17;450516;116;922577;-67
2021/06/06 02:29:46;;;;;;;3.41;2.31;;;;;;;15.93;69.01;100408.09;451481;114;923159;-66
2021/06/06 02:31:05;;;;;;;4.01;2.21;;;;;;;15.93;68.82;100410.84;452678;113;923037;-68
2021/06/06 02:32:33;;;;;;;4.47;2.52;;;;;;;15.93;68.76;100413.59;451115;114;922581;-68
2021/06/06 02:33:44;;;;;;;2.63;1.94;;;;;;;15.92;68.84;100409.17;459871;113;923212;-68
2021/06/06 02:35:07;;;;;;;3.66;2.22;;;;;;;15.91;68.80;100413.00;459272;113;922866;-68
2021/06/06 02:36:16;;;;;;;6.27;2.17;;;;;;;15.90;68.76;100403.08;452208;113;923060;-68
2021/06/06 02:37:24;;;;;;;10.58;2.42;;;;;;;15.90;68.74;100399.50;449995;116;922492;-69
2021/06/06 02:38:43;;;;;;;5.07;2.44;;;;;;;15.90;68.74;100410.50;451306;114;924011;-67
2021/06/06 02:39:51;;;;;;;9.31;2.60;;;;;;;15.90;68.76;100405.83;450235;114;923927;-68
2021/06/06 02:41:14;;;;;;;4.63;2.45;;;;;;;15.92;68.84;100405.59;450250;115;922604;-69
2021/06/06 02:42:33;;;;;;;4.56;1.83;;;;;;;15.93;68.68;100404.51;452615;114;925203;-66
2021/06/06 02:43:51;;;;;;;4.23;1.99;;;;;;;15.91;68.73;100395.67;452915;113;922309;-70
2021/06/06 02:45:00;;;;;;;7.84;1.86;;;;;;;15.89;68.70;100398.66;458932;114;923106;-69
2021/06/06 02:46:08;;;;;;;5.76;2.68;;;;;;;15.88;68.66;100399.74;457934;114;922058;-69
2021/06/06 02:47:16;;;;;;;3.96;1.97;;;;;;;15.86;68.68;100399.19;443593;117;923615;-67
2021/06/06 02:48:38;;;;;;;5.42;2.01;;;;;;;15.87;68.68;100395.36;444779;114;924148;-67
2021/06/06 02:49:45;;;;;;;7.36;2.47;;;;;;;15.89;68.72;100395.91;450312;116;922578;-67
2021/06/06 02:50:52;;;;;;;4.09;1.68;;;;;;;15.89;68.65;100400.58;449559;115;922944;-67
2021/06/06 02:52:06;;;;;;;3.27;2.24;;;;;;;15.89;68.58;100395.91;451245;114;923052;-69
2021/06/06 02:53:14;;;;;;;3.68;2.09;;;;;;;15.90;68.42;100400.33;451392;113;925370;-69
2021/06/06 02:54:22;;;;;;;4.62;2.19;;;;;;;15.90;68.44;100403.08;450606;114;924052;-69
2021/06/06 02:55:37;;;;;;;4.83;2.23;;;;;;;15.89;68.33;100395.08;451174;114;924393;-69
2021/06/06 02:56:48;;;;;;;2.56;1.82;;;;;;;15.87;68.39;100402.77;450678;114;927642;-69
2021/06/06 02:57:56;;;;;;;2.84;1.92;;;;;;;15.86;68.36;100401.94;452708;115;923931;-69
2021/06/06 02:59:14;;;;;;;3.17;1.82;;;;;;;15.84;68.38;100402.18;451456;114;925776;-68
2021/06/06 03:00:28;;;;;;;3.23;1.87;;;;;;;15.95;68.44;100405.90;469986;110;934855;-68
2021/06/06 03:01:35;;;;;;;3.98;1.93;;;;;;;15.84;68.47;100404.09;460545;112;924123;-68
2021/06/06 03:02:44;;;;;;;4.25;2.07;;;;;;;15.85;68.58;100394.77;463455;112;926086;-69
2021/06/06 03:03:50;;;;;;;5.83;1.94;;;;;;;15.85;68.61;100400.27;463792;112;924041;-68
2021/06/06 03:04:59;;;;;;;3.50;2.01;;;;;;;15.87;68.75;100400.86;464642;112;924469;-68
2021/06/06 03:06:11;;;;;;;3.71;2.17;;;;;;;15.90;68.80;100399.50;463606;112;927061;-69
2021/06/06 03:07:20;;;;;;;7.93;2.04;;;;;;;15.92;68.64;100400.09;463764;111;924032;-69
2021/06/06 03:08:25;;;;;;;3.83;1.94;;;;;;;15.92;68.63;100400.09;464770;112;922453;-69
2021/06/06 03:09:30;;;;;;;3.59;2.13;;;;;;;15.93;68.69;100394.34;464346;111;924064;-68
2021/06/06 03:10:39;;;;;;;3.86;2.01;;;;;;;15.94;68.80;100404.23;464042;111;923013;-70
2021/06/06 03:11:45;;;;;;;2.99;1.97;;;;;;;15.98;68.73;100393.58;464545;112;922756;-70
2021/06/06 03:12:53;;;;;;;4.57;2.24;;;;;;;16.00;68.66;100394.97;465113;112;924010;-68
2021/06/06 03:14:03;;;;;;;2.24;1.83;;;;;;;16.01;68.55;100399.38;464454;112;922604;-68
2021/06/06 03:15:12;;;;;;;4.77;2.21;;;;;;;16.03;68.50;100396.39;464072;112;922502;-68
2021/06/06 03:16:19;;;;;;;4.30;2.02;;;;;;;16.05;68.48;100402.45;462761;112;924005;-68
2021/06/06 03:17:29;;;;;;;3.38;2.19;;;;;;;16.05;68.53;100397.78;462315;112;924521;-68
2021/06/06 03:18:37;;;;;;;4.71;2.25;;;;;;;16.08;68.60;100399.20;464114;112;922558;-69
2021/06/06 03:19:45;;;;;;;7.77;1.99;;;;;;;16.10;68.55;100397.84;464122;112;922475;-70
2021/06/06 03:20:53;;;;;;;4.06;2.07;;;;;;;16.12;68.55;100400.34;455119;114;922477;-70
2021/06/06 03:22:01;;;;;;;3.89;1.78;;;;;;;16.14;68.56;100398.19;449456;114;922920;-69
2021/06/06 03:23:09;;;;;;;3.72;1.93;;;;;;;16.15;68.48;100399.85;455016;112;924028;-69
2021/06/06 03:24:19;;;;;;;4.86;2.21;;;;;;;16.16;68.50;100402.33;462971;112;924609;-69
2021/06/06 03:25:44;;;;;;;6.93;2.24;;;;;;;16.19;68.61;100401.83;464339;112;924017;-67
2021/06/06 03:26:52;;;;;;;2.58;2.14;;;;;;;16.23;68.47;100400.22;464876;112;922566;-67
2021/06/06 03:27:58;;;;;;;3.94;2.02;;;;;;;16.27;68.37;100398.61;465093;112;923203;-68
2021/06/06 03:29:06;;;;;;;7.25;2.26;;;;;;;16.31;68.42;100398.95;464714;111;924134;-69
2021/06/06 03:30:44;;;;;;;7.56;2.07;;;;;;;16.34;68.20;100406.67;459133;114;923359;-68
2021/06/06 03:31:55;;;;;;;4.19;1.97;;;;;;;16.36;68.16;100403.68;450758;115;923294;-69
2021/06/06 03:33:03;;;;;;;4.26;2.70;;;;;;;16.36;68.06;100398.17;464202;111;926609;-68
2021/06/06 03:34:08;;;;;;;7.23;2.33;;;;;;;16.37;68.17;100395.17;463637;112;923762;-68
2021/06/06 03:35:19;;;;;;;4.81;2.13;;;;;;;16.40;68.10;100402.06;463486;112;923098;-68
2021/06/06 03:36:28;;;;;;;2.62;1.93;;;;;;;16.42;67.99;100399.90;459635;113;922488;-68
2021/06/06 03:37:33;;;;;;;3.76;2.47;;;;;;;16.43;68.04;100396.06;459832;112;922437;-68
2021/06/06 03:38:55;;;;;;;4.69;2.04;;;;;;;16.44;67.81;100398.53;464092;112;922838;-69
2021/06/06 03:39:59;;;;;;;4.32;2.37;;;;;;;16.44;67.85;100405.95;463936;111;930626;-69
2021/06/06 03:41:06;;;;;;;4.27;1.88;;;;;;;16.43;67.95;100401.57;463309;111;922411;-67
2021/06/06 03:42:12;;;;;;;2.59;2.08;;;;;;;16.43;67.87;100407.08;465054;112;922518;-70
2021/06/06 03:43:19;;;;;;;5.13;1.84;;;;;;;16.42;67.77;100408.99;465419;112;924086;-69
2021/06/06 03:44:23;;;;;;;4.57;1.90;;;;;;;16.43;67.76;100407.08;465554;112;922400;-69
2021/06/06 03:45:27;;;;;;;2.71;1.80;;;;;;;16.43;67.89;100407.08;463746;111;925388;-68
2021/06/06 03:46:34;;;;;;;5.52;2.19;;;;;;;16.44;67.97;100406.79;464867;112;923130;-70
2021/06/06 03:47:39;;;;;;;3.71;1.86;;;;;;;16.47;67.97;100410.97;464631;112;922362;-70
2021/06/06 03:48:43;;;;;;;6.56;2.16;;;;;;;16.47;67.84;100405.46;453209;115;930500;-69
2021/06/06 03:49:58;;;;;;;5.02;2.18;;;;;;;16.48;67.83;100412.63;453857;114;930599;-70
2021/06/06 03:51:06;;;;;;;6.20;2.21;;;;;;;16.48;67.87;100404.38;463868;112;923193;-70
2021/06/06 03:52:12;;;;;;;3.06;1.79;;;;;;;16.48;67.76;100412.63;456856;113;923471;-69
2021/06/06 03:53:17;;;;;;;3.84;2.04;;;;;;;16.46;67.61;100403.79;456932;111;922599;-70
2021/06/06 03:54:21;;;;;;;4.57;1.89;;;;;;;16.42;67.65;100400.73;464525;112;930424;-68
2021/06/06 03:55:25;;;;;;;5.51;2.57;;;;;;;16.40;67.79;100402.90;462934;112;924077;-70
2021/06/06 03:56:31;;;;;;;3.63;2.02;;;;;;;16.40;67.84;100408.41;463416;112;922757;-70
2021/06/06 03:57:38;;;;;;;5.46;2.01;;;;;;;16.42;67.99;100410.91;463480;111;922529;-68
2021/06/06 03:58:43;;;;;;;6.20;2.19;;;;;;;16.43;67.93;100405.12;463945;112;923130;-71
2021/06/06 03:59:48;;;;;;;5.50;2.09;;;;;;;16.45;67.91;100404.88;459371;114;924068;-71
2021/06/06 04:00:55;;;;;;;3.91;1.87;;;;;;;16.44;67.92;100401.29;461769;112;924051;-69
2021/06/06 04:01:59;;;;;;;6.59;2.25;;;;;;;16.43;67.86;100398.81;464390;112;922912;-68
2021/06/06 04:03:07;;;;;;;5.16;2.81;;;;;;;16.44;67.97;100403.20;464372;112;924092;-68
2021/06/06 04:04:21;;;;;;;5.62;2.83;;;;;;;16.45;68.04;100404.88;464073;112;924054;-70
2021/06/06 04:05:28;;;;;;;6.56;2.44;;;;;;;16.45;68.06;100399.37;465749;111;923987;-70
2021/06/06 04:06:33;;;;;;;8.78;2.12;;;;;;;16.45;68.11;100400.20;466310;112;924101;-66
2021/06/06 04:07:38;;;;;;;2.87;1.83;;;;;;;16.46;68.12;100409.30;466610;112;922537;-68
2021/06/06 04:08:43;;;;;;;4.38;2.67;;;;;;;16.46;68.11;100403.79;465928;112;933671;-68
2021/06/06 04:09:49;;;;;;;4.02;2.68;;;;;;;16.45;68.21;100402.13;465930;112;924001;-69
2021/06/06 04:10:54;;;;;;;4.91;1.96;;;;;;;16.44;68.47;100401.29;465732;111;924110;-68
2021/06/06 04:11:58;;;;;;;4.88;2.32;;;;;;;16.44;68.39;100401.29;465506;112;924099;-69
2021/06/06 04:13:04;;;;;;;8.77;3.21;;;;;;;16.43;68.29;100401.57;465271;112;926145;-66
2021/06/06 04:14:10;;;;;;;4.91;2.30;;;;;;;16.44;68.29;100408.71;465055;111;922481;-68
2021/06/06 04:15:16;;;;;;;2.95;2.01;;;;;;;16.43;68.35;100401.57;464869;112;926893;-69
2021/06/06 04:16:21;;;;;;;3.58;2.02;;;;;;;16.44;68.38;100408.71;465928;112;922448;-65
2021/06/06 04:17:25;;;;;;;5.49;2.06;;;;;;;16.44;68.44;100394.95;460550;114;922491;-66
2021/06/06 04:18:32;;;;;;;3.44;2.02;;;;;;;16.45;68.47;100397.45;451600;112;932672;-67
2021/06/06 04:19:36;;;;;;;4.03;2.03;;;;;;;16.47;68.51;100402.70;458945;112;925241;-68
2021/06/06 04:20:43;;;;;;;3.51;1.83;;;;;;;16.48;68.38;100404.38;465950;112;924903;-69
2021/06/06 04:21:48;;;;;;;3.92;2.27;;;;;;;16.47;68.45;100402.70;461696;114;925892;-68
2021/06/06 04:22:54;;;;;;;3.44;1.94;;;;;;;16.48;68.55;100398.88;461330;112;924520;-68
2021/06/06 04:23:59;;;;;;;4.38;2.06;;;;;;;16.48;68.55;100399.70;455637;114;925514;-69
2021/06/06 04:25:06;;;;;;;2.33;1.72;;;;;;;16.51;68.61;100401.93;443502;118;923027;-69
2021/06/06 04:26:11;;;;;;;3.93;2.33;;;;;;;16.53;68.64;100397.01;460544;111;925754;-69
2021/06/06 04:27:16;;;;;;;4.59;2.03;;;;;;;16.56;68.40;100396.48;464698;112;924006;-69
2021/06/06 04:28:23;;;;;;;4.12;2.05;;;;;;;16.58;68.29;100398.98;465890;111;924093;-68
2021/06/06 04:29:40;;;;;;;5.80;2.11;;;;;;;16.59;68.31;100397.93;466659;112;924457;-71
2021/06/06 04:30:44;;;;;;;3.19;1.98;;;;;;;16.59;68.27;100395.98;465686;112;923973;-69
2021/06/06 04:31:48;;;;;;;6.36;2.71;;;;;;;16.59;68.20;100395.17;465496;111;923155;-71
2021/06/06 04:32:54;;;;;;;4.12;2.01;;;;;;;16.60;68.25;100388.55;465665;111;922659;-69
2021/06/06 04:33:58;;;;;;;5.46;1.98;;;;;;;16.62;68.24;100394.64;465869;112;924106;-70
2021/06/06 04:35:04;;;;;;;3.67;1.98;;;;;;;16.64;68.16;100393.31;464475;112;930591;-68
2021/06/06 04:36:09;;;;;;;4.01;2.09;;;;;;;16.67;67.97;100391.94;465266;111;924130;-69
2021/06/06 04:37:15;;;;;;;6.17;2.06;;;;;;;16.66;67.70;100391.11;465325;111;923636;-70
2021/06/06 04:38:22;;;;;;;4.03;2.13;;;;;;;16.68;67.74;100393.61;466444;112;922947;-67
2021/06/06 04:39:26;;;;;;;3.50;2.35;;;;;;;16.67;67.85;100394.70;466548;111;922421;-68
2021/06/06 04:40:33;;;;;;;6.92;2.29;;;;;;;16.69;67.98;100395.28;465514;111;922845;-69
2021/06/06 04:41:37;;;;;;;3.63;1.85;;;;;;;16.70;68.08;100396.11;465326;111;922952;-70
2021/06/06 04:44:51;;;;;;;2.54;1.94;;;;;;;16.72;68.29;100389.23;463962;111;932623;-70
2021/06/06 04:45:57;;;;;;;11.84;3.12;;;;;;;16.74;68.08;100378.81;447373;116;925646;-72
2021/06/06 04:47:08;;;;;;;3.38;2.11;;;;;;;16.77;68.13;100385.70;457899;112;924039;-72
2021/06/06 04:48:15;;;;;;;4.39;2.04;;;;;;;16.77;68.06;100378.27;465485;112;924053;-73
2021/06/06 04:49:22;;;;;;;3.14;2.07;;;;;;;16.79;67.89;100387.12;464291;111;924046;-71
2021/06/06 04:50:27;;;;;;;3.39;2.09;;;;;;;16.80;67.96;100380.52;466787;112;925348;-72
2021/06/06 04:51:30;;;;;;;3.10;1.96;;;;;;;16.83;67.95;100381.91;465198;112;922464;-71
2021/06/06 04:52:37;;;;;;;2.76;1.97;;;;;;;16.85;67.83;100388.00;465141;111;922348;-72
2021/06/06 04:53:42;;;;;;;2.87;2.01;;;;;;;16.88;67.90;100382.78;464308;112;922428;-71
2021/06/06 04:54:47;;;;;;;2.61;1.99;;;;;;;16.92;67.86;100388.63;465365;112;923329;-72
2021/06/06 04:55:55;;;;;;;4.07;2.12;;;;;;;16.94;67.87;100380.91;465667;112;922873;-73
2021/06/06 04:56:59;;;;;;;4.94;2.08;;;;;;;16.98;67.80;100384.83;464503;112;923991;-71
2021/06/06 04:58:06;;;;;;;6.74;2.49;;;;;;;17.02;67.64;100381.28;464740;111;923042;-71
2021/06/06 04:59:12;;;;;;;7.94;2.60;;;;;;;17.06;67.62;100387.92;465409;112;927442;-72
2021/06/06 05:00:21;;;;;;;2.29;1.99;;;;;;;17.12;67.71;100387.97;465955;111;922454;-73
2021/06/06 05:01:25;;;;;;;3.01;1.78;;;;;;;17.16;67.57;100389.92;463287;112;924042;-72
2021/06/06 05:02:28;;;;;;;5.51;2.06;;;;;;;17.22;67.48;100388.05;464626;111;927206;-72
2021/06/06 05:03:35;;;;;;;3.94;2.04;;;;;;;17.27;67.25;100383.41;465081;112;923016;-73
2021/06/06 05:04:40;;;;;;;2.31;1.98;;;;;;;17.32;67.03;100380.69;464177;112;922715;-72
2021/06/06 05:05:46;;;;;;;3.87;2.43;;;;;;;17.36;66.92;100386.52;464177;111;922584;-73
2021/06/06 05:06:50;;;;;;;4.21;1.97;;;;;;;17.42;66.69;100390.98;465319;112;922518;-72
2021/06/06 05:08:00;;;;;;;5.93;2.15;;;;;;;17.45;66.18;100393.19;463527;112;924503;-73
2021/06/06 05:09:06;;;;;;;4.21;2.24;;;;;;;17.45;66.04;100385.75;464617;112;924108;-73
2021/06/06 05:10:12;;;;;;;4.28;2.07;;;;;;;17.46;66.26;100386.59;464618;111;924727;-73
2021/06/06 05:11:16;;;;;;;3.31;2.13;;;;;;;17.47;66.33;100386.34;463941;112;923028;-73
2021/06/06 05:12:20;;;;;;;2.32;2.14;;;;;;;17.51;66.27;100389.37;464724;112;924361;-72
2021/06/06 05:13:25;;;;;;;4.81;2.08;;;;;;;17.55;66.10;100387.75;464267;112;922859;-72
2021/06/06 05:14:29;;;;;;;4.62;1.96;;;;;;;17.58;65.96;100387.23;458896;114;924153;-72
2021/06/06 05:15:34;;;;;;;2.72;2.19;;;;;;;17.63;65.97;100392.81;458776;112;924574;-73
2021/06/06 05:16:39;;;;;;;4.94;2.07;;;;;;;17.67;65.77;100385.66;465354;112;923015;-73
2021/06/06 05:17:44;;;;;;;3.57;1.74;;;;;;;17.72;65.65;100391.20;464446;112;922575;-72
2021/06/06 05:18:48;;;;;;;5.59;2.39;;;;;;;17.74;65.54;100391.78;464042;111;923524;-73